createdAt,value
2018-05-25T00:00:53.161Z,12.50
2018-05-25T00:03:20.827Z,12.40
2018-05-25T00:05:48.471Z,12.40
2018-05-25T00:08:16.164Z,12.30
2018-05-25T00:10:43.816Z,12.30
2018-05-25T00:13:11.711Z,12.30
2018-05-25T00:15:40.144Z,12.20
2018-05-25T00:18:07.782Z,12.20
2018-05-25T00:20:35.430Z,12.20
2018-05-25T00:23:03.067Z,12.20
2018-05-25T00:25:31.486Z,12.10
2018-05-25T00:27:59.196Z,12.10
2018-05-25T00:30:27.622Z,12.00
2018-05-25T00:32:55.246Z,12.00
2018-05-25T00:35:23.687Z,11.90
2018-05-25T00:37:51.350Z,11.90
2018-05-25T00:40:18.975Z,11.90
2018-05-25T00:42:46.663Z,11.90
2018-05-25T00:45:14.287Z,11.80
2018-05-25T00:47:41.948Z,11.80
2018-05-25T00:50:09.586Z,11.80
2018-05-25T00:52:38.011Z,11.70
2018-05-25T00:55:17.636Z,11.70
2018-05-25T00:57:45.305Z,11.70
2018-05-25T01:00:12.946Z,11.70
2018-05-25T01:02:40.614Z,11.70
2018-05-25T01:05:08.253Z,11.70
2018-05-25T01:07:35.915Z,11.80
2018-05-25T01:10:03.635Z,11.80
2018-05-25T01:12:31.305Z,11.80
2018-05-25T01:14:58.939Z,11.80
2018-05-25T01:17:26.619Z,11.70
2018-05-25T01:19:54.281Z,11.70
2018-05-25T01:22:21.921Z,11.60
2018-05-25T01:24:49.545Z,11.70
2018-05-25T01:27:17.209Z,11.70
2018-05-25T01:29:44.834Z,11.60
2018-05-25T01:32:12.491Z,11.60
2018-05-25T01:34:40.890Z,11.60
2018-05-25T01:37:08.542Z,11.50
2018-05-25T01:39:36.967Z,11.50
2018-05-25T01:42:04.617Z,11.40
2018-05-25T01:44:32.278Z,11.40
2018-05-25T01:47:00.676Z,11.40
2018-05-25T01:49:28.429Z,11.40
2018-05-25T01:51:56.115Z,11.40
2018-05-25T01:54:24.544Z,11.30
2018-05-25T01:56:52.296Z,11.30
2018-05-25T01:59:19.964Z,11.30
2018-05-25T02:01:47.593Z,11.30
2018-05-25T02:04:16.094Z,11.20
2018-05-25T02:06:43.763Z,11.20
2018-05-25T02:09:11.456Z,11.20
2018-05-25T02:11:39.075Z,11.10
2018-05-25T02:14:06.752Z,11.10
2018-05-25T02:16:34.370Z,11.10
2018-05-25T02:19:02.022Z,11.00
2018-05-25T02:21:30.470Z,11.30
2018-05-25T02:23:58.123Z,11.20
2018-05-25T02:26:25.791Z,11.30
2018-05-25T02:28:53.412Z,11.40
2018-05-25T02:31:21.114Z,11.30
2018-05-25T02:33:48.745Z,11.30
2018-05-25T02:36:16.411Z,11.20
2018-05-25T02:38:44.079Z,11.10
2018-05-25T02:41:11.759Z,11.10
2018-05-25T02:43:39.411Z,11.00
2018-05-25T02:46:07.027Z,11.00
2018-05-25T02:48:34.690Z,11.00
2018-05-25T02:51:02.325Z,11.00
2018-05-25T02:53:30.782Z,10.90
2018-05-25T02:55:58.482Z,10.90
2018-05-25T02:58:26.906Z,11.20
2018-05-25T03:00:54.540Z,11.10
2018-05-25T03:03:22.189Z,11.30
2018-05-25T03:05:49.813Z,11.20
2018-05-25T03:08:17.474Z,11.10
2018-05-25T03:10:45.220Z,11.00
2018-05-25T03:13:13.545Z,10.90
2018-05-25T03:15:41.256Z,10.90
2018-05-25T03:18:08.886Z,10.90
2018-05-25T03:20:36.537Z,10.90
2018-05-25T03:23:04.192Z,10.80
2018-05-25T03:25:31.852Z,10.70
2018-05-25T03:27:59.497Z,10.70
2018-05-25T03:30:27.921Z,10.70
2018-05-25T03:32:55.573Z,10.70
2018-05-25T03:35:23.280Z,10.70
2018-05-25T03:37:51.702Z,10.70
2018-05-25T03:40:20.156Z,10.60
2018-05-25T03:42:47.792Z,10.60
2018-05-25T03:45:15.456Z,10.60
2018-05-25T03:47:43.898Z,10.60
2018-05-25T03:50:11.587Z,10.50
2018-05-25T03:52:39.264Z,10.50
2018-05-25T03:55:07.669Z,10.60
2018-05-25T03:57:35.336Z,10.60
2018-05-25T04:00:14.927Z,10.60
2018-05-25T04:02:42.617Z,10.60
2018-05-25T04:05:11.124Z,10.60
2018-05-25T04:07:38.814Z,10.60
2018-05-25T04:10:06.508Z,10.60
2018-05-25T04:12:34.170Z,10.70
2018-05-25T04:15:02.612Z,10.90
2018-05-25T04:17:30.355Z,10.90
2018-05-25T04:19:58.281Z,11.00
2018-05-25T04:22:26.776Z,11.00
2018-05-25T04:24:54.406Z,10.90
2018-05-25T04:27:22.879Z,11.00
2018-05-25T04:29:50.548Z,11.00
2018-05-25T04:32:19.009Z,11.10
2018-05-25T04:34:46.670Z,11.10
2018-05-25T04:37:14.312Z,11.30
2018-05-25T04:39:41.974Z,11.30
2018-05-25T04:42:09.602Z,11.30
2018-05-25T04:44:37.265Z,11.40
2018-05-25T04:47:04.900Z,11.50
2018-05-25T04:49:33.655Z,11.70
2018-05-25T04:52:01.287Z,11.70
2018-05-25T04:54:28.964Z,11.70
2018-05-25T04:56:56.591Z,11.80
2018-05-25T04:59:24.244Z,11.80
2018-05-25T05:01:51.854Z,11.90
2018-05-25T05:04:19.541Z,12.00
2018-05-25T05:06:47.961Z,12.20
2018-05-25T05:09:15.627Z,12.20
2018-05-25T05:11:43.342Z,12.30
2018-05-25T05:14:11.737Z,12.50
2018-05-25T05:16:39.399Z,12.50
2018-05-25T05:19:07.023Z,12.60
2018-05-25T05:21:34.691Z,12.70
2018-05-25T05:24:03.181Z,13.20
2018-05-25T05:26:31.613Z,13.60
2018-05-25T05:28:59.260Z,13.60
2018-05-25T05:31:26.887Z,14.00
2018-05-25T05:33:54.559Z,14.40
2018-05-25T05:36:22.199Z,14.80
2018-05-25T05:38:49.991Z,15.10
2018-05-25T05:41:17.617Z,15.10
2018-05-25T05:43:46.041Z,15.20
2018-05-25T05:46:13.703Z,15.20
2018-05-25T05:48:41.338Z,15.40
2018-05-25T05:51:09.066Z,15.40
2018-05-25T05:53:36.716Z,15.70
2018-05-25T05:56:04.410Z,15.60
2018-05-25T05:58:32.047Z,15.80
2018-05-25T06:01:00.465Z,15.80
2018-05-25T06:03:28.082Z,15.80
2018-05-25T06:05:56.557Z,16.20
2018-05-25T06:08:24.180Z,16.10
2018-05-25T06:10:51.831Z,16.30
2018-05-25T06:13:19.478Z,16.50
2018-05-25T06:15:47.108Z,16.70
2018-05-25T06:18:15.642Z,17.10
2018-05-25T06:20:43.346Z,17.00
2018-05-25T06:23:11.787Z,17.40
2018-05-25T06:25:39.425Z,17.30
2018-05-25T06:28:07.087Z,17.40
2018-05-25T06:30:34.719Z,17.30
2018-05-25T06:33:02.379Z,17.60
2018-05-25T06:35:30.858Z,18.20
2018-05-25T06:37:59.246Z,18.30
2018-05-25T06:40:26.890Z,18.30
2018-05-25T06:42:55.310Z,18.70
2018-05-25T06:45:22.958Z,18.70
2018-05-25T06:47:50.619Z,18.70
2018-05-25T06:50:18.327Z,18.40
2018-05-25T06:52:45.942Z,18.40
2018-05-25T06:55:13.600Z,18.70
2018-05-25T06:57:42.030Z,18.60
2018-05-25T07:00:09.721Z,18.70
2018-05-25T07:02:37.399Z,18.80
2018-05-25T07:05:05.075Z,18.80
2018-05-25T07:07:32.690Z,19.00
2018-05-25T07:10:01.116Z,19.10
2018-05-25T07:12:28.778Z,19.00
2018-05-25T07:14:56.483Z,18.80
2018-05-25T07:17:24.898Z,18.90
2018-05-25T07:19:52.534Z,18.90
2018-05-25T07:22:20.186Z,18.70
2018-05-25T07:24:47.800Z,18.80
2018-05-25T07:27:15.451Z,19.10
2018-05-25T07:29:43.137Z,19.30
2018-05-25T07:32:10.820Z,19.50
2018-05-25T07:34:38.447Z,19.50
2018-05-25T07:37:06.091Z,19.90
2018-05-25T07:39:33.726Z,20.00
2018-05-25T07:42:01.403Z,19.60
2018-05-25T07:44:29.074Z,19.70
2018-05-25T07:46:56.699Z,19.60
2018-05-25T07:49:24.392Z,19.40
2018-05-25T07:51:52.037Z,19.30
2018-05-25T07:54:19.707Z,19.50
2018-05-25T07:56:47.330Z,20.10
2018-05-25T07:59:14.994Z,20.30
2018-05-25T08:01:42.614Z,20.60
2018-05-25T08:04:10.275Z,20.90
2018-05-25T08:06:37.887Z,21.00
2018-05-25T08:09:06.408Z,21.20
2018-05-25T08:11:34.130Z,21.30
2018-05-25T08:14:01.738Z,21.30
2018-05-25T08:16:29.414Z,21.30
2018-05-25T08:18:57.819Z,21.50
2018-05-25T08:21:25.492Z,21.50
2018-05-25T08:23:53.903Z,22.00
2018-05-25T08:26:21.566Z,22.00
2018-05-25T08:28:49.206Z,22.30
2018-05-25T08:31:16.867Z,22.50
2018-05-25T08:33:44.514Z,22.40
2018-05-25T08:36:12.166Z,22.20
2018-05-25T08:38:40.307Z,22.50
2018-05-25T08:41:07.970Z,22.70
2018-05-25T08:43:36.351Z,23.20
2018-05-25T08:46:04.795Z,23.40
2018-05-25T08:48:32.451Z,23.40
2018-05-25T08:51:00.224Z,23.50
2018-05-25T08:53:28.906Z,23.60
2018-05-25T08:55:56.567Z,23.70
2018-05-25T08:58:24.240Z,23.70
2018-05-25T09:00:52.644Z,23.60
2018-05-25T09:03:20.295Z,23.60
2018-05-25T09:05:48.762Z,24.00
2018-05-25T09:08:17.221Z,23.80
2018-05-25T09:10:44.871Z,23.80
2018-05-25T09:13:12.532Z,23.60
2018-05-25T09:15:40.163Z,23.90
2018-05-25T09:18:07.871Z,24.10
2018-05-25T09:20:35.578Z,24.00
2018-05-25T09:23:03.239Z,23.90
2018-05-25T09:25:30.850Z,24.00
2018-05-25T09:27:58.570Z,24.00
2018-05-25T09:30:26.198Z,24.00
2018-05-25T09:32:53.882Z,24.20
2018-05-25T09:35:21.566Z,24.10
2018-05-25T09:37:49.223Z,24.00
2018-05-25T09:40:16.871Z,23.90
2018-05-25T09:42:44.528Z,23.90
2018-05-25T09:45:12.156Z,23.80
2018-05-25T09:47:40.407Z,23.80
2018-05-25T09:50:08.366Z,23.60
2018-05-25T09:52:36.046Z,23.40
2018-05-25T09:55:04.585Z,23.40
2018-05-25T09:57:32.243Z,23.40
2018-05-25T09:59:59.863Z,23.40
2018-05-25T10:02:27.514Z,23.30
2018-05-25T10:04:55.947Z,23.20
2018-05-25T10:07:23.583Z,23.20
2018-05-25T10:09:51.253Z,23.30
2018-05-25T10:12:19.873Z,23.40
2018-05-25T10:14:47.525Z,23.50
2018-05-25T10:17:15.139Z,23.70
2018-05-25T10:19:42.778Z,23.70
2018-05-25T10:22:11.244Z,23.70
2018-05-25T10:24:39.733Z,23.70
2018-05-25T10:27:08.156Z,23.70
2018-05-25T10:29:35.811Z,23.60
2018-05-25T11:27:21.823Z,23.60
2018-05-25T11:29:49.487Z,23.90
2018-05-25T11:32:17.142Z,24.00
2018-05-25T11:34:44.825Z,24.10
2018-05-25T11:37:12.491Z,24.20
2018-05-25T11:39:40.160Z,24.10
2018-05-25T11:42:07.806Z,24.00
2018-05-25T11:44:35.474Z,23.90
2018-05-25T11:47:03.224Z,23.50
2018-05-25T11:49:31.006Z,23.30
2018-05-25T11:51:58.793Z,23.10
2018-05-25T11:54:26.511Z,23.10
2018-05-25T11:56:54.202Z,23.10
2018-05-25T11:59:21.883Z,23.10
2018-05-25T12:01:49.692Z,23.10
2018-05-25T12:04:17.399Z,23.10
2018-05-25T12:06:45.884Z,23.30
2018-05-25T12:09:14.303Z,23.50
2018-05-25T12:11:41.991Z,23.50
2018-05-25T12:14:09.662Z,23.60
2018-05-25T12:16:37.405Z,23.70
2018-05-25T12:19:05.118Z,23.80
2018-05-25T12:21:32.794Z,23.90
2018-05-25T12:24:00.420Z,23.90
2018-05-25T12:26:28.815Z,23.50
2018-05-25T12:28:56.515Z,23.50
2018-05-25T12:31:24.209Z,23.20
2018-05-25T12:33:51.882Z,23.10
2018-05-25T12:36:20.274Z,23.40
2018-05-25T12:38:48.004Z,23.40
2018-05-25T12:41:15.687Z,23.50
2018-05-25T12:43:44.104Z,23.50
2018-05-25T12:46:11.725Z,23.50
2018-05-25T12:48:40.175Z,23.60
2018-05-25T12:51:07.831Z,23.60
2018-05-25T12:53:35.483Z,23.70
2018-05-25T12:56:03.170Z,23.70
2018-05-25T12:58:31.643Z,23.40
2018-05-25T13:00:59.268Z,23.40
2018-05-25T13:03:26.920Z,23.50
2018-05-25T13:05:54.566Z,23.60
2018-05-25T13:08:22.200Z,23.70
2018-05-25T13:10:50.638Z,23.40
2018-05-25T13:13:18.250Z,23.40
2018-05-25T13:15:45.908Z,23.40
2018-05-25T13:18:13.526Z,23.50
2018-05-25T13:20:41.197Z,23.50
2018-05-25T13:23:08.829Z,23.60
2018-05-25T13:25:36.497Z,23.70
2018-05-25T13:28:04.157Z,23.80
2018-05-25T13:30:31.854Z,23.90
2018-05-25T13:33:00.255Z,24.10
2018-05-25T13:35:27.949Z,24.10
2018-05-25T13:37:55.599Z,24.00
2018-05-25T13:40:23.262Z,23.90
2018-05-25T13:42:50.885Z,23.90
2018-05-25T13:45:18.533Z,24.00
2018-05-25T13:47:46.988Z,24.40
2018-05-25T13:50:14.619Z,24.40
2018-05-25T13:52:42.277Z,24.40
2018-05-25T13:55:09.906Z,24.60
2018-05-25T13:57:37.576Z,24.60
2018-05-25T14:00:05.210Z,24.60
2018-05-25T14:02:32.851Z,24.30
2018-05-25T14:05:00.493Z,24.20
2018-05-25T14:07:28.155Z,24.10
2018-05-25T14:09:55.777Z,24.10
2018-05-25T14:12:23.434Z,24.30
2018-05-25T14:14:51.060Z,24.30
2018-05-25T14:17:19.449Z,24.40
2018-05-25T14:19:47.872Z,24.30
2018-05-25T14:22:15.490Z,24.30
2018-05-25T14:24:43.170Z,24.30
2018-05-25T14:27:10.813Z,24.20
2018-05-25T14:29:38.483Z,24.10
2018-05-25T14:32:06.151Z,24.20
2018-05-25T14:34:33.810Z,24.20
2018-05-25T14:37:01.450Z,24.20
2018-05-25T14:39:29.872Z,23.90
2018-05-25T14:41:57.529Z,23.90
2018-05-25T14:44:25.304Z,23.80
2018-05-25T14:46:52.982Z,23.60
2018-05-25T14:49:20.617Z,23.40
2018-05-25T14:51:49.044Z,23.30
2018-05-25T14:54:17.448Z,23.30
2018-05-25T14:56:45.103Z,23.30
2018-05-25T14:59:12.740Z,23.30
2018-05-25T15:01:41.160Z,22.80
2018-05-25T15:04:08.773Z,22.90
2018-05-25T15:06:37.221Z,22.20
2018-05-25T15:09:05.643Z,22.10
2018-05-25T15:11:33.294Z,21.80
2018-05-25T15:14:01.721Z,21.60
2018-05-25T15:16:29.397Z,21.50
2018-05-25T15:18:57.062Z,21.50
2018-05-25T15:21:24.684Z,21.50
2018-05-25T15:23:52.356Z,21.40
2018-05-25T15:26:20.746Z,21.30
2018-05-25T15:28:49.180Z,21.20
2018-05-25T15:31:16.821Z,21.20
2018-05-25T15:33:45.250Z,21.10
2018-05-25T15:36:12.882Z,21.10
2018-05-25T15:38:40.562Z,21.00
2018-05-25T15:41:08.196Z,21.10
2018-05-25T15:43:35.865Z,21.00
2018-05-25T15:46:03.530Z,20.90
2018-05-25T15:48:31.317Z,20.90
2018-05-25T15:50:58.991Z,20.80
2018-05-25T15:53:26.679Z,20.70
2018-05-25T15:55:55.107Z,20.70
2018-05-25T15:58:22.749Z,20.70
2018-05-25T16:00:50.492Z,20.70
2018-05-25T16:03:18.138Z,20.70
2018-05-25T16:05:46.755Z,20.60
2018-05-25T16:08:14.413Z,20.50
2018-05-25T16:10:42.151Z,20.50
2018-05-25T16:13:10.594Z,20.50
2018-05-25T16:15:38.345Z,20.40
2018-05-25T16:18:06.023Z,20.40
2018-05-25T16:20:34.175Z,20.50
2018-05-25T16:23:01.803Z,20.50
2018-05-25T16:25:29.478Z,20.50
2018-05-25T16:27:57.882Z,20.40
2018-05-25T16:30:25.644Z,20.40
2018-05-25T16:32:53.296Z,20.50
2018-05-25T16:35:20.973Z,20.60
2018-05-25T16:37:48.627Z,20.60
2018-05-25T16:40:16.367Z,20.50
2018-05-25T16:42:44.014Z,20.50
2018-05-25T16:45:12.401Z,20.50
2018-05-25T16:47:40.065Z,20.50
2018-05-25T16:50:07.711Z,20.40
2018-05-25T16:52:35.398Z,20.40
2018-05-25T16:55:03.058Z,20.40
2018-05-25T16:57:30.705Z,20.30
2018-05-25T16:59:58.376Z,20.30
2018-05-25T17:02:26.039Z,20.20
2018-05-25T17:04:53.689Z,20.10
2018-05-25T17:07:21.302Z,20.00
2018-05-25T17:09:49.725Z,19.90
2018-05-25T17:12:17.339Z,19.80
2018-05-25T17:14:44.998Z,19.70
2018-05-25T17:17:13.403Z,19.60
2018-05-25T17:19:41.052Z,19.60
2018-05-25T17:22:08.682Z,19.50
2018-05-25T17:24:36.343Z,19.40
2018-05-25T17:27:04.788Z,19.40
2018-05-25T17:29:32.414Z,19.30
2018-05-25T17:32:00.087Z,19.30
2018-05-25T17:34:27.734Z,19.20
2018-05-25T17:36:55.371Z,19.20
2018-05-25T17:39:23.799Z,19.10
2018-05-25T17:41:51.467Z,19.00
2018-05-25T17:44:19.098Z,19.00
2018-05-25T17:46:46.757Z,18.90
2018-05-25T17:49:14.370Z,18.90
2018-05-25T17:51:42.015Z,18.90
2018-05-25T17:54:09.706Z,18.80
2018-05-25T17:56:38.136Z,18.70
2018-05-25T17:59:05.811Z,18.70
2018-05-25T18:01:33.615Z,18.70
2018-05-25T18:04:01.334Z,18.70
2018-05-25T18:06:29.024Z,18.60
2018-05-25T18:08:57.532Z,18.60
2018-05-25T18:11:25.324Z,18.60
2018-05-25T18:13:53.008Z,18.50
2018-05-25T18:16:21.635Z,18.50
2018-05-25T18:18:49.376Z,18.50
2018-05-25T18:21:17.087Z,18.50
2018-05-25T18:23:44.748Z,18.40
2018-05-25T18:26:12.480Z,18.40
2018-05-25T18:28:40.249Z,18.40
2018-05-25T18:31:08.186Z,18.40
2018-05-25T18:33:35.981Z,18.30
2018-05-25T18:36:03.793Z,18.30
2018-05-25T18:38:32.460Z,18.20
2018-05-25T18:41:00.319Z,18.10
2018-05-25T18:43:28.049Z,18.20
2018-05-25T18:45:55.743Z,18.10
2018-05-25T18:48:23.406Z,18.00
2018-05-25T18:50:51.214Z,18.00
2018-05-25T18:53:19.737Z,17.80
2018-05-25T18:55:47.716Z,17.80
2018-05-25T18:58:15.551Z,17.70
2018-05-25T19:00:43.286Z,17.60
2018-05-25T19:03:11.044Z,17.50
2018-05-25T19:05:38.806Z,17.40
2018-05-25T19:08:07.321Z,17.20
2018-05-25T19:10:35.038Z,17.20
2018-05-25T19:13:02.990Z,17.10
2018-05-25T19:15:30.766Z,17.00
2018-05-25T19:17:59.434Z,16.80
2018-05-25T19:20:27.181Z,16.80
2018-05-25T19:22:54.994Z,16.70
2018-05-25T19:25:22.666Z,16.60
2018-05-25T19:27:50.351Z,16.50
2018-05-25T19:30:18.086Z,16.40
2018-05-25T19:32:46.607Z,16.20
2018-05-25T19:35:14.377Z,16.20
2018-05-25T19:37:42.219Z,16.20
2018-05-25T19:40:10.207Z,16.10
2018-05-25T19:42:37.963Z,16.00
2018-05-25T19:45:05.813Z,15.90
2018-05-25T19:47:33.469Z,15.90
2018-05-25T19:50:01.251Z,15.80
2018-05-25T19:52:28.978Z,15.70
2018-05-25T19:54:56.797Z,15.60
2018-05-25T19:57:24.622Z,15.60
2018-05-25T19:59:52.435Z,15.50
2018-05-25T20:02:20.348Z,15.50
2018-05-25T20:04:47.981Z,15.40
2018-05-25T20:07:16.424Z,15.30
2018-05-25T20:09:44.111Z,15.20
2018-05-25T20:12:12.526Z,15.20
2018-05-25T20:14:40.156Z,15.10
2018-05-25T20:17:08.570Z,15.00
2018-05-25T20:19:36.195Z,15.00
2018-05-25T20:22:04.651Z,14.90
2018-05-25T20:24:32.695Z,14.90
2018-05-25T20:27:00.553Z,14.90
2018-05-25T20:29:28.290Z,14.80
2018-05-25T20:31:55.955Z,14.80
2018-05-25T20:34:23.668Z,14.70
2018-05-25T20:36:55.458Z,14.70
2018-05-25T20:39:23.175Z,14.70
2018-05-25T20:41:50.830Z,14.70
2018-05-25T20:44:18.899Z,14.70
2018-05-25T20:46:46.624Z,14.60
2018-05-25T20:49:14.434Z,14.50
2018-05-25T20:51:42.821Z,14.50
2018-05-25T20:54:12.486Z,14.40
2018-05-25T20:56:41.431Z,14.40
2018-05-25T20:59:10.171Z,14.40
2018-05-25T21:01:38.245Z,14.40
2018-05-25T21:04:06.340Z,14.40
2018-05-25T21:06:34.158Z,14.30
2018-05-25T21:09:03.760Z,14.30
2018-05-25T21:11:31.710Z,14.30
2018-05-25T21:13:59.536Z,14.30
2018-05-25T21:16:28.262Z,14.20
2018-05-25T21:18:56.739Z,14.20
2018-05-25T21:21:24.935Z,14.20
2018-05-25T21:23:53.223Z,14.10
2018-05-25T21:26:21.100Z,14.10
2018-05-25T21:28:49.234Z,14.00
2018-05-25T21:31:17.272Z,14.00
2018-05-25T21:33:46.201Z,14.10
2018-05-25T21:36:14.047Z,14.00
2018-05-25T21:38:42.480Z,14.00
2018-05-25T21:41:11.049Z,14.00
2018-05-25T21:43:38.682Z,13.90
2018-05-25T21:46:07.396Z,13.90
2018-05-25T21:48:35.106Z,13.90
2018-05-25T21:51:03.252Z,13.80
2018-05-25T21:53:32.553Z,13.70
2018-05-25T21:56:01.078Z,13.60
2018-05-25T21:58:28.747Z,13.60
2018-05-25T22:00:56.386Z,13.50
2018-05-25T22:03:24.049Z,13.50
2018-05-25T22:05:51.706Z,13.50
2018-05-25T22:08:19.471Z,13.50
2018-05-25T22:10:47.098Z,13.50
2018-05-25T22:13:15.540Z,13.40
2018-05-25T22:15:43.175Z,13.40
2018-05-25T22:18:10.850Z,13.40
2018-05-25T22:20:38.473Z,13.40
2018-05-25T22:23:06.170Z,13.40
2018-05-25T22:25:33.796Z,13.40
2018-05-25T22:28:01.469Z,13.40
2018-05-25T22:30:29.120Z,13.40
2018-05-25T22:32:56.789Z,13.40
2018-05-25T22:35:24.428Z,13.40
2018-05-25T22:37:52.086Z,13.40
2018-05-25T22:40:19.723Z,13.30
2018-05-25T22:42:59.243Z,13.30
2018-05-25T22:45:38.819Z,13.30
2018-05-25T22:48:19.099Z,13.20
2018-05-25T22:50:58.717Z,13.20
2018-05-25T22:53:32.338Z,13.20
2018-05-25T22:56:00.000Z,13.10
2018-05-25T22:58:27.657Z,13.10
2018-05-25T23:00:55.273Z,13.10
2018-05-25T23:03:22.901Z,13.10
2018-05-25T23:05:50.583Z,13.20
2018-05-25T23:08:18.212Z,13.10
2018-05-25T23:10:45.854Z,13.00
2018-05-25T23:13:13.474Z,13.00
2018-05-25T23:15:41.331Z,13.00
2018-05-25T23:18:08.955Z,12.90
2018-05-25T23:20:36.635Z,12.80
2018-05-25T23:23:04.772Z,12.80
2018-05-25T23:25:32.428Z,12.80
2018-05-25T23:28:00.089Z,12.80
2018-05-25T23:30:27.722Z,12.70
2018-05-25T23:32:56.160Z,12.70
2018-05-25T23:35:23.802Z,12.70
2018-05-25T23:37:51.460Z,12.70
2018-05-25T23:40:19.092Z,12.70
2018-05-25T23:42:46.749Z,12.60
2018-05-25T23:45:14.387Z,12.60
2018-05-25T23:47:42.055Z,12.60
2018-05-25T23:50:10.451Z,12.50
2018-05-25T23:52:38.110Z,12.50
2018-05-25T23:55:05.737Z,12.50
2018-05-25T23:57:33.427Z,12.50
